»·PEaware :: N12SA KLAS-KFLG

N12SA :: KLAS-KFLG

FLIGHT INFORMATION

Flight Status: Arrived
Operator: Privately registered:
United States
More flights under this callsign
Pilot: Johnny M. (21174)
Aircraft: SOCATA TBM-900
(TBM9)
More flights by this aircraft type
Origin: KLAS McCarran Intl
United States
Destination: KFLG Flagstaff Pulliam
United States
More flights between these airports :: More routes between these airports
Route: WINDS V105 PRFUM V210 PGS V291 KACEE
File this flight plan on PilotEdge
Remarks:
Altitude:
(Current/Filed)
19,000ft
Speed:
(Current/Filed)
285kts
Departed: 17-May-20 01:30 PM
Arrived: 17-May-20 02:14 PM
Distance/Time
Traveled:
179nm/0:44
Distance/Time
To Go:
Arrived

Flight Plot

Page will automatically refresh every two minutes.


Map Options




Map Legend


Flown Route
Filed Route
Departure Airport
Arrival Airport
Navaid (VOR, NDB)
Fix

Horizontal Profiles

Position Reports

Time Latitude Longitude Heading Altitude Ground
Speed
17-May-20 13:13 36.080948 -115.149376 283 2184ft 0kts
17-May-20 13:14 36.080948 -115.149376 283 2184ft 0kts
17-May-20 13:15 36.080948 -115.149376 283 2184ft 0kts
17-May-20 13:16 36.080948 -115.149376 283 2184ft 0kts
17-May-20 13:17 36.080948 -115.149376 283 2184ft 0kts
17-May-20 13:18 36.080948 -115.149376 283 2184ft 0kts
17-May-20 13:19 36.080948 -115.149376 283 2184ft 0kts
17-May-20 13:20 36.080948 -115.149376 283 2184ft 0kts
17-May-20 13:21 36.080948 -115.149376 283 2184ft 0kts
17-May-20 13:22 36.080948 -115.149376 283 2184ft 0kts
17-May-20 13:23 36.080985 -115.152508 285 2184ft 17kts
17-May-20 13:24 36.085279 -115.157083 335 2184ft 25kts
17-May-20 13:25 36.092231 -115.154971 24 2184ft 29kts
17-May-20 13:26 36.097972 -115.152424 292 2184ft 0kts
17-May-20 13:27 36.097972 -115.152424 292 2184ft 0kts
17-May-20 13:28 36.098158 -115.153787 204 2184ft 15kts
17-May-20 13:29 36.071083 -115.167495 201 3538ft 135kts
17-May-20 13:30 36.037553 -115.183626 202 6185ft 132kts
17-May-20 13:31 36.002811 -115.199407 186 9122ft 138kts
17-May-20 13:32 35.987444 -115.152558 101 11493ft 184kts
17-May-20 13:33 35.975510 -115.089309 111 13818ft 194kts
17-May-20 13:34 35.959902 -115.023270 112 16182ft 208kts
17-May-20 13:35 35.943057 -114.953539 113 18715ft 218kts
17-May-20 13:36 35.921697 -114.865764 111 18917ft 302kts
17-May-20 13:37 35.896587 -114.762521 111 18902ft 320kts
17-May-20 13:38 35.870498 -114.655885 111 18903ft 322kts
17-May-20 13:39 35.834237 -114.556729 128 18905ft 314kts
17-May-20 13:40 35.786159 -114.465907 129 18904ft 314kts
17-May-20 13:41 35.738241 -114.375673 129 18936ft 314kts
17-May-20 13:42 35.690709 -114.286362 129 18989ft 313kts
17-May-20 13:43 35.642894 -114.196773 129 19035ft 313kts
17-May-20 13:44 35.594782 -114.106846 129 19036ft 314kts
17-May-20 13:46 35.546622 -114.017080 129 19036ft 314kts
17-May-20 13:47 35.517261 -113.916022 88 19035ft 329kts
17-May-20 13:48 35.546531 -113.808847 69 19038ft 332kts
17-May-20 13:49 35.578424 -113.701546 69 19039ft 332kts
17-May-20 13:50 35.609917 -113.594771 69 19041ft 332kts
17-May-20 13:51 35.611601 -113.485343 114 19041ft 321kts
17-May-20 13:52 35.584045 -113.379689 111 19041ft 323kts
17-May-20 13:53 35.558232 -113.275781 111 19033ft 323kts
17-May-20 13:54 35.532056 -113.170759 111 19110ft 320kts
17-May-20 13:55 35.505808 -113.065900 111 19196ft 320kts
17-May-20 13:56 35.479424 -112.960887 111 19228ft 321kts
17-May-20 13:57 35.452811 -112.855393 111 19229ft 322kts
17-May-20 13:58 35.426202 -112.750374 111 19229ft 322kts
17-May-20 13:59 35.399401 -112.645044 111 19230ft 322kts
17-May-20 14:00 35.372547 -112.539909 111 19232ft 322kts
17-May-20 14:01 35.345453 -112.434458 112 19232ft 322kts
17-May-20 14:01 35.322467 -112.347571 112 19232ft 322kts
17-May-20 14:03 35.290129 -112.225888 112 17737ft 313kts
17-May-20 14:03 35.267702 -112.141855 112 16631ft 308kts
17-May-20 14:04 35.241083 -112.042412 112 15313ft 304kts
17-May-20 14:06 35.210368 -111.928131 111 13789ft 301kts
17-May-20 14:06 35.188522 -111.847158 111 12701ft 299kts
17-May-20 14:07 35.166239 -111.752226 115 11372ft 260kts
17-May-20 14:08 35.142539 -111.675959 114 10023ft 216kts
17-May-20 14:09 35.141141 -111.621170 46 8781ft 163kts
17-May-20 14:10 35.171845 -111.608896 287 7921ft 111kts
17-May-20 14:11 35.164917 -111.641568 222 7373ft 103kts
17-May-20 14:12 35.146116 -111.662949 217 7042ft 81kts
17-May-20 14:13 35.139513 -111.671844 219 7014ft 21kts
17-May-20 14:14 35.137497 -111.675439 220 7014ft 0kts
17-May-20 14:15 35.136779 -111.675815 223 7014ft 0kts
17-May-20 14:16 35.136779 -111.675815 223 7014ft 0kts
17-May-20 14:17 35.136742 -111.675855 223 7014ft 0kts
17-May-20 14:18 35.136769 -111.675823 223 7014ft 0kts

Navigation Log

Ident Type
Flight plan parsing failed, navigation log unavailable